Time;durP1;ratioP1;P1;durP2;ratioP2;P2;SDS_P1;SDS_P2;PMS_P1;PMS_P2;Temp;Humidity;BMP_temperature;BMP_pressure;BME280_temperature;BME280_humidity;BME280_pressure;Samples;Min_cycle;Max_cycle;Signal;HPM_P1;HPM_P2
2022/07/09 05:43:11;;;;;;;;;;;24.70;47.60;;;;;;5147058;22;19925;-78
2022/07/09 05:45:38;;;;;;;;;;;24.70;47.60;;;;;;5014750;28;20024;-78
2022/07/09 05:48:05;;;;;;;;;;;24.70;47.70;;;;;;5014447;28;19932;-78
2022/07/09 05:50:32;;;;;;;;;;;24.70;47.70;;;;;;5014238;28;20024;-78
2022/07/09 05:52:58;;;;;;;;;;;24.70;47.80;;;;;;5014089;28;20013;-78
2022/07/09 05:55:25;;;;;;;;;;;24.70;47.80;;;;;;5014423;28;20012;-77
2022/07/09 05:57:52;;;;;;;;;;;24.70;47.90;;;;;;5016000;28;19961;-78
2022/07/09 06:00:20;;;;;;;;;;;24.70;47.90;;;;;;5019664;28;19993;-79
2022/07/09 06:02:46;;;;;;;;;;;24.70;48.00;;;;;;5017359;28;20345;-79
2022/07/09 06:05:13;;;;;;;;;;;24.70;48.00;;;;;;5015316;28;20341;-79
2022/07/09 06:07:44;;;;;;;;;;;24.70;48.10;;;;;;5016654;28;19969;-79
2022/07/09 06:10:11;;;;;;;;;;;24.70;48.10;;;;;;5018024;28;19930;-80
2022/07/09 06:12:38;;;;;;;;;;;24.70;48.10;;;;;;5018278;28;20377;-80
2022/07/09 06:15:05;;;;;;;;;;;24.70;48.20;;;;;;5017999;28;20016;-80
2022/07/09 06:17:33;;;;;;;;;;;24.70;48.30;;;;;;5018807;28;19925;-82
2022/07/09 06:20:00;;;;;;;;;;;24.70;48.40;;;;;;5016412;28;19929;-79
2022/07/09 06:22:27;;;;;;;;;;;24.80;48.50;;;;;;5016217;28;19930;-79
2022/07/09 06:24:53;;;;;;;;;;;24.70;48.50;;;;;;5019969;28;20036;-79
2022/07/09 06:27:20;;;;;;;;;;;24.70;48.60;;;;;;5020784;28;19972;-79
2022/07/09 06:29:47;;;;;;;;;;;24.70;48.70;;;;;;5021049;28;19972;-79
2022/07/09 06:32:13;;;;;;;;;;;24.80;48.80;;;;;;5019921;28;19932;-79
2022/07/09 06:34:41;;;;;;;;;;;24.80;48.80;;;;;;5019670;28;19976;-79
2022/07/09 06:37:08;;;;;;;;;;;24.70;48.80;;;;;;5019890;28;19956;-79
2022/07/09 06:39:48;;;;;;;;;;;24.80;48.90;;;;;;5020919;28;20024;-79
2022/07/09 06:42:16;;;;;;;;;;;24.80;49.00;;;;;;5019987;28;20377;-79
2022/07/09 06:44:43;;;;;;;;;;;24.80;49.10;;;;;;5019290;28;19925;-78
2022/07/09 06:47:10;;;;;;;;;;;24.70;49.10;;;;;;5017022;28;20372;-78
2022/07/09 06:49:37;;;;;;;;;;;24.80;49.20;;;;;;5017998;28;19927;-78
2022/07/09 06:52:05;;;;;;;;;;;24.70;49.20;;;;;;5017673;28;19926;-79
2022/07/09 06:54:32;;;;;;;;;;;24.70;49.20;;;;;;5017564;28;19932;-79
2022/07/09 06:56:59;;;;;;;;;;;24.80;49.40;;;;;;5017553;28;19925;-78
2022/07/09 06:59:25;;;;;;;;;;;24.80;49.50;;;;;;5016951;28;20278;-77
2022/07/09 07:01:52;;;;;;;;;;;24.80;49.50;;;;;;5018863;28;20464;-78
2022/07/09 07:04:20;;;;;;;;;;;24.80;49.60;;;;;;5017730;28;20373;-78
2022/07/09 07:06:48;;;;;;;;;;;24.80;49.70;;;;;;5017609;28;19980;-78
2022/07/09 07:09:18;;;;;;;;;;;24.80;49.80;;;;;;5019181;28;19925;-79
2022/07/09 07:11:44;;;;;;;;;;;24.80;49.80;;;;;;5028261;28;19949;-80
2022/07/09 07:14:11;;;;;;;;;;;24.80;49.80;;;;;;5023188;28;20384;-84
2022/07/09 07:16:41;;;;;;;;;;;24.80;49.80;;;;;;5016993;28;19931;-83
2022/07/09 07:19:08;;;;;;;;;;;24.80;50.40;;;;;;5018054;28;20012;-85
2022/07/09 07:21:35;;;;;;;;;;;24.70;49.60;;;;;;5017503;28;19925;-85
2022/07/09 07:24:01;;;;;;;;;;;24.70;49.60;;;;;;5017388;28;20008;-84
2022/07/09 07:26:29;;;;;;;;;;;24.70;49.60;;;;;;5017833;28;20011;-86
2022/07/09 07:28:56;;;;;;;;;;;24.70;49.50;;;;;;5017393;28;20016;-87
2022/07/09 07:31:24;;;;;;;;;;;24.70;49.50;;;;;;5018415;28;20301;-85
2022/07/09 07:33:51;;;;;;;;;;;24.70;49.40;;;;;;5018072;28;20054;-84
2022/07/09 07:36:17;;;;;;;;;;;24.70;49.20;;;;;;5017186;28;19925;-85
2022/07/09 07:38:45;;;;;;;;;;;24.60;48.80;;;;;;5017987;28;19968;-86
2022/07/09 07:41:12;;;;;;;;;;;24.50;48.70;;;;;;5017433;28;19925;-86
2022/07/09 07:43:40;;;;;;;;;;;24.50;48.40;;;;;;5017391;28;20012;-87
2022/07/09 07:46:07;;;;;;;;;;;24.50;48.10;;;;;;5016857;28;20397;-85
2022/07/09 07:48:35;;;;;;;;;;;24.50;48.00;;;;;;5020305;28;20341;-84
2022/07/09 07:51:03;;;;;;;;;;;24.40;47.70;;;;;;5023222;28;19934;-87
2022/07/09 07:53:31;;;;;;;;;;;24.40;47.50;;;;;;5024019;28;19926;-86
2022/07/09 07:55:58;;;;;;;;;;;24.40;47.40;;;;;;5022644;28;19932;-85
2022/07/09 07:58:25;;;;;;;;;;;24.40;47.20;;;;;;5024270;28;19925;-85
2022/07/09 08:00:54;;;;;;;;;;;24.40;47.10;;;;;;5024757;28;20445;-86
2022/07/09 08:03:21;;;;;;;;;;;24.40;46.90;;;;;;5023041;28;19932;-85
2022/07/09 08:05:49;;;;;;;;;;;24.40;46.80;;;;;;5023580;28;19976;-85
2022/07/09 08:08:18;;;;;;;;;;;24.40;46.50;;;;;;5023269;28;19925;-85
2022/07/09 08:10:45;;;;;;;;;;;24.40;46.40;;;;;;5023088;28;19925;-81
2022/07/09 08:13:12;;;;;;;;;;;24.40;46.20;;;;;;5022417;28;19937;-82
2022/07/09 08:15:39;;;;;;;;;;;24.40;45.90;;;;;;5023246;28;20420;-80
2022/07/09 08:18:12;;;;;;;;;;;24.40;45.80;;;;;;5022889;28;19932;-80
2022/07/09 08:20:39;;;;;;;;;;;24.40;45.80;;;;;;5023663;28;19926;-82
2022/07/09 08:23:06;;;;;;;;;;;24.40;45.70;;;;;;5023646;28;20340;-83
2022/07/09 08:25:33;;;;;;;;;;;24.30;45.30;;;;;;5023365;28;19985;-84
2022/07/09 08:27:59;;;;;;;;;;;24.30;45.00;;;;;;5017099;28;20424;-86
2022/07/09 08:30:26;;;;;;;;;;;24.30;44.90;;;;;;5016592;28;19932;-85
2022/07/09 08:32:53;;;;;;;;;;;24.30;44.70;;;;;;5019624;28;19961;-84
2022/07/09 08:35:21;;;;;;;;;;;24.30;44.60;;;;;;5020340;28;20012;-86
2022/07/09 08:37:48;;;;;;;;;;;24.30;44.40;;;;;;5024623;28;19932;-83
2022/07/09 08:40:14;;;;;;;;;;;24.30;44.20;;;;;;5022003;28;20293;-82
2022/07/09 08:42:42;;;;;;;;;;;24.30;44.00;;;;;;5021801;28;19997;-84
2022/07/09 08:45:11;;;;;;;;;;;24.30;43.90;;;;;;5020694;28;20020;-83
2022/07/09 08:47:38;;;;;;;;;;;24.30;43.90;;;;;;5020204;28;20005;-85
2022/07/09 08:50:06;;;;;;;;;;;24.30;43.80;;;;;;5020632;28;20035;-82
2022/07/09 08:52:34;;;;;;;;;;;24.40;43.90;;;;;;5021665;28;20007;-82
2022/07/09 08:55:02;;;;;;;;;;;24.40;43.80;;;;;;5022474;28;20500;-81
2022/07/09 08:57:28;;;;;;;;;;;24.40;43.70;;;;;;5018683;28;20019;-84
2022/07/09 08:59:55;;;;;;;;;;;24.40;43.60;;;;;;5018739;28;20028;-83
2022/07/09 09:02:22;;;;;;;;;;;24.50;43.60;;;;;;5019197;28;20464;-83
2022/07/09 09:04:48;;;;;;;;;;;24.50;43.50;;;;;;5020536;28;20013;-84
2022/07/09 09:07:15;;;;;;;;;;;24.50;43.50;;;;;;5019519;28;19969;-82
2022/07/09 09:09:43;;;;;;;;;;;24.50;43.40;;;;;;5019119;28;19969;-81
2022/07/09 09:12:11;;;;;;;;;;;24.50;43.40;;;;;;5019028;28;20016;-82
2022/07/09 09:14:38;;;;;;;;;;;24.50;43.40;;;;;;5019096;28;20012;-87
2022/07/09 09:17:06;;;;;;;;;;;24.50;43.30;;;;;;5020527;28;19932;-79
2022/07/09 09:19:33;;;;;;;;;;;24.60;43.30;;;;;;5017168;28;19933;-78
2022/07/09 09:22:00;;;;;;;;;;;24.50;43.20;;;;;;5016217;28;19930;-78
2022/07/09 09:24:29;;;;;;;;;;;24.60;43.30;;;;;;5016435;28;19932;-78
2022/07/09 09:27:00;;;;;;;;;;;24.60;43.30;;;;;;5017907;28;19932;-81
2022/07/09 09:29:27;;;;;;;;;;;24.60;43.30;;;;;;5019898;28;19925;-82
2022/07/09 09:31:54;;;;;;;;;;;24.60;43.40;;;;;;5019515;28;19932;-82
2022/07/09 09:34:21;;;;;;;;;;;24.70;43.40;;;;;;5018835;28;20019;-83
2022/07/09 09:36:50;;;;;;;;;;;24.70;43.40;;;;;;5018874;28;20389;-83
2022/07/09 09:39:18;;;;;;;;;;;24.70;43.40;;;;;;5022907;28;19932;-84
2022/07/09 09:41:46;;;;;;;;;;;24.70;43.40;;;;;;5021541;28;19932;-83
2022/07/09 09:44:15;;;;;;;;;;;24.70;43.40;;;;;;5022317;28;19925;-79
2022/07/09 09:46:43;;;;;;;;;;;24.70;43.10;;;;;;5023289;28;19983;-77
2022/07/09 09:49:11;;;;;;;;;;;24.70;42.90;;;;;;5022636;28;19932;-80
2022/07/09 09:51:39;;;;;;;;;;;24.60;42.60;;;;;;5022152;28;20024;-80
2022/07/09 09:54:06;;;;;;;;;;;24.60;42.50;;;;;;5022761;28;19940;-79
2022/07/09 09:56:33;;;;;;;;;;;24.60;42.40;;;;;;5016457;28;19998;-80
2022/07/09 09:59:00;;;;;;;;;;;24.50;42.20;;;;;;5019204;28;19949;-79
2022/07/09 10:01:29;;;;;;;;;;;24.50;41.90;;;;;;5019965;28;19925;-77
2022/07/09 10:03:56;;;;;;;;;;;24.50;41.90;;;;;;5021506;28;20351;-81
2022/07/09 10:06:22;;;;;;;;;;;24.50;41.80;;;;;;5021227;28;19929;-80
2022/07/09 10:08:50;;;;;;;;;;;24.50;41.70;;;;;;5019331;28;20021;-80
2022/07/09 10:11:16;;;;;;;;;;;24.50;41.60;;;;;;5019825;28;19968;-79
2022/07/09 10:13:50;;;;;;;;;;;24.50;41.40;;;;;;5020442;28;19976;-81
2022/07/09 10:16:17;;;;;;;;;;;24.50;41.20;;;;;;5019965;28;20392;-79
2022/07/09 10:18:52;;;;;;;;;;;24.40;40.90;;;;;;5020104;28;20012;-79
2022/07/09 10:21:18;;;;;;;;;;;24.50;40.90;;;;;;5019244;28;19948;-77
2022/07/09 10:23:51;;;;;;;;;;;24.50;40.90;;;;;;5021678;28;19925;-78
2022/07/09 10:26:18;;;;;;;;;;;24.50;40.90;;;;;;5023449;28;20008;-78
2022/07/09 10:28:44;;;;;;;;;;;24.50;40.90;;;;;;5022091;28;19968;-75
2022/07/09 10:31:12;;;;;;;;;;;24.50;40.90;;;;;;5021266;28;19993;-75
2022/07/09 10:33:43;;;;;;;;;;;24.50;40.90;;;;;;5020822;28;20024;-75
2022/07/09 10:36:14;;;;;;;;;;;24.50;40.90;;;;;;5020649;28;20032;-75
2022/07/09 10:38:40;;;;;;;;;;;24.60;41.00;;;;;;5019880;28;20433;-78
2022/07/09 10:41:08;;;;;;;;;;;24.60;41.00;;;;;;5022515;28;20011;-79
2022/07/09 10:43:46;;;;;;;;;;;24.60;41.00;;;;;;5021990;28;19925;-79
2022/07/09 10:46:13;;;;;;;;;;;24.70;41.00;;;;;;5021801;28;19930;-79
2022/07/09 10:48:41;;;;;;;;;;;24.70;41.10;;;;;;5021461;28;19961;-80
2022/07/09 10:51:07;;;;;;;;;;;24.70;41.00;;;;;;5021885;28;19961;-79
2022/07/09 10:53:35;;;;;;;;;;;24.70;41.00;;;;;;5021323;28;20019;-80
2022/07/09 10:56:02;;;;;;;;;;;24.70;41.00;;;;;;5020422;28;20044;-80
2022/07/09 10:58:29;;;;;;;;;;;24.70;40.90;;;;;;5021995;28;19984;-80
2022/07/09 11:00:57;;;;;;;;;;;24.70;40.90;;;;;;5022244;28;19929;-80
2022/07/09 11:03:25;;;;;;;;;;;24.80;40.90;;;;;;5021428;28;19938;-80
2022/07/09 11:05:51;;;;;;;;;;;24.80;40.80;;;;;;5021059;28;20448;-80
2022/07/09 11:08:20;;;;;;;;;;;24.80;40.80;;;;;;5020373;28;20341;-80
2022/07/09 11:10:48;;;;;;;;;;;24.80;40.70;;;;;;5017115;28;19975;-77
2022/07/09 11:13:15;;;;;;;;;;;24.80;40.70;;;;;;5018770;28;19976;-78
2022/07/09 11:15:42;;;;;;;;;;;24.80;40.60;;;;;;5021323;28;20446;-79
2022/07/09 11:18:09;;;;;;;;;;;24.80;40.60;;;;;;5020300;28;20423;-79
2022/07/09 11:20:38;;;;;;;;;;;24.80;40.60;;;;;;5021654;28;19969;-80
2022/07/09 11:23:05;;;;;;;;;;;24.90;40.60;;;;;;5018362;28;19948;-74
2022/07/09 11:25:31;;;;;;;;;;;24.90;40.60;;;;;;5019990;28;19967;-80
2022/07/09 11:28:00;;;;;;;;;;;24.80;40.50;;;;;;5020423;28;19926;-77
2022/07/09 11:30:28;;;;;;;;;;;24.90;40.60;;;;;;5019749;28;19932;-81
2022/07/09 11:32:55;;;;;;;;;;;24.90;40.60;;;;;;5018239;28;20389;-78
2022/07/09 11:35:26;;;;;;;;;;;24.90;40.50;;;;;;5017568;28;19960;-77
2022/07/09 11:37:53;;;;;;;;;;;24.90;40.50;;;;;;5016874;28;20020;-78
2022/07/09 11:40:20;;;;;;;;;;;24.90;40.50;;;;;;5017254;28;20460;-78
2022/07/09 11:42:49;;;;;;;;;;;24.90;40.50;;;;;;5024178;28;19925;-78
2022/07/09 11:45:20;;;;;;;;;;;24.90;40.50;;;;;;5021483;28;19925;-77
2022/07/09 11:47:47;;;;;;;;;;;24.90;40.40;;;;;;5029599;28;19925;-79
2022/07/09 11:50:14;;;;;;;;;;;24.90;40.40;;;;;;5030651;28;19929;-78
2022/07/09 11:52:44;;;;;;;;;;;24.90;40.30;;;;;;5029512;28;19925;-78
2022/07/09 11:55:12;;;;;;;;;;;24.90;40.30;;;;;;5023641;28;19926;-78
2022/07/09 11:57:39;;;;;;;;;;;24.90;40.20;;;;;;5023276;28;19949;-78
2022/07/09 12:00:21;;;;;;;;;;;24.90;40.20;;;;;;5018833;28;19969;-79
2022/07/09 12:02:49;;;;;;;;;;;24.80;40.10;;;;;;5019178;28;19925;-77
2022/07/09 12:05:25;;;;;;;;;;;24.90;40.10;;;;;;5018104;28;19932;-77
2022/07/09 12:07:52;;;;;;;;;;;24.90;40.10;;;;;;5016555;28;20016;-76
2022/07/09 12:10:25;;;;;;;;;;;24.90;40.00;;;;;;5016791;28;20320;-76
2022/07/09 12:12:52;;;;;;;;;;;24.90;40.00;;;;;;5016603;28;20012;-78
2022/07/09 12:15:19;;;;;;;;;;;24.90;40.00;;;;;;5019148;28;19925;-79
2022/07/09 12:17:45;;;;;;;;;;;24.90;39.90;;;;;;5020615;28;19925;-80
2022/07/09 12:20:13;;;;;;;;;;;24.90;39.80;;;;;;5021351;28;19997;-80
2022/07/09 12:22:40;;;;;;;;;;;24.90;39.80;;;;;;5020152;28;19941;-80
2022/07/09 12:25:07;;;;;;;;;;;24.90;39.70;;;;;;5020484;28;19925;-80
2022/07/09 12:27:34;;;;;;;;;;;24.90;39.70;;;;;;5020235;28;20033;-80
2022/07/09 12:30:01;;;;;;;;;;;24.90;39.60;;;;;;5020548;28;20024;-79
2022/07/09 12:32:27;;;;;;;;;;;24.90;39.50;;;;;;5016824;28;20016;-77
2022/07/09 12:34:54;;;;;;;;;;;24.90;39.50;;;;;;5016370;28;19968;-77
2022/07/09 12:37:22;;;;;;;;;;;24.90;39.50;;;;;;5015658;28;19925;-77
2022/07/09 12:39:49;;;;;;;;;;;24.90;39.40;;;;;;5015917;28;20399;-76
2022/07/09 12:42:15;;;;;;;;;;;24.90;39.40;;;;;;5022387;28;19968;-79
2022/07/09 12:44:42;;;;;;;;;;;24.90;39.40;;;;;;5020241;28;20027;-78
2022/07/09 12:47:09;;;;;;;;;;;24.90;39.30;;;;;;5015899;28;20012;-78
2022/07/09 12:49:40;;;;;;;;;;;24.90;39.30;;;;;;5016554;28;19995;-77
2022/07/09 12:52:08;;;;;;;;;;;24.90;39.20;;;;;;5015472;28;19929;-77
2022/07/09 12:54:37;;;;;;;;;;;24.90;39.20;;;;;;5014611;28;19976;-77
2022/07/09 12:57:04;;;;;;;;;;;24.90;39.20;;;;;;5015872;28;19925;-76
2022/07/09 12:59:33;;;;;;;;;;;24.90;39.20;;;;;;5015249;28;20194;-77
2022/07/09 13:01:59;;;;;;;;;;;24.90;39.10;;;;;;5015624;28;20312;-76
2022/07/09 13:04:26;;;;;;;;;;;24.90;39.10;;;;;;5015241;28;20362;-76
2022/07/09 13:06:53;;;;;;;;;;;24.90;39.10;;;;;;5015122;28;20334;-76
2022/07/09 13:09:20;;;;;;;;;;;24.90;39.00;;;;;;5020531;28;19963;-79
2022/07/09 13:11:49;;;;;;;;;;;24.90;39.00;;;;;;5019341;28;20428;-79
2022/07/09 13:14:17;;;;;;;;;;;24.90;38.90;;;;;;5019463;28;19925;-79
2022/07/09 13:16:44;;;;;;;;;;;24.90;38.90;;;;;;5016591;28;20399;-78
2022/07/09 13:19:11;;;;;;;;;;;24.90;38.90;;;;;;5015632;28;19988;-77
2022/07/09 13:21:38;;;;;;;;;;;24.90;38.90;;;;;;5017659;28;19989;-79
2022/07/09 13:24:05;;;;;;;;;;;24.90;38.90;;;;;;5020963;28;20412;-80
2022/07/09 13:26:32;;;;;;;;;;;24.90;38.80;;;;;;5025346;28;19925;-79
2022/07/09 13:29:00;;;;;;;;;;;24.90;38.80;;;;;;5025050;28;19988;-80
2022/07/09 13:31:26;;;;;;;;;;;25.00;38.80;;;;;;5024445;28;19964;-81
2022/07/09 13:33:53;;;;;;;;;;;25.00;38.80;;;;;;5024509;28;19964;-80
2022/07/09 13:36:20;;;;;;;;;;;25.00;38.80;;;;;;5024469;28;19957;-78
2022/07/09 13:38:46;;;;;;;;;;;24.90;38.70;;;;;;5017296;28;19925;-79
2022/07/09 13:41:13;;;;;;;;;;;25.00;38.80;;;;;;5019191;28;19969;-79
2022/07/09 13:43:40;;;;;;;;;;;25.00;38.80;;;;;;5018478;28;19932;-80
2022/07/09 13:46:08;;;;;;;;;;;25.00;38.80;;;;;;5017408;28;19945;-79
2022/07/09 13:48:34;;;;;;;;;;;25.00;38.70;;;;;;5016987;28;20057;-79
2022/07/09 13:51:01;;;;;;;;;;;25.00;38.70;;;;;;5017142;28;19926;-80
2022/07/09 13:53:29;;;;;;;;;;;25.00;38.70;;;;;;5016373;28;20020;-80
2022/07/09 13:55:56;;;;;;;;;;;25.00;38.60;;;;;;5018894;28;19933;-80
2022/07/09 13:58:23;;;;;;;;;;;25.00;38.70;;;;;;5018527;28;19932;-80
2022/07/09 14:00:49;;;;;;;;;;;25.00;38.60;;;;;;5018313;28;19925;-80
2022/07/09 14:03:18;;;;;;;;;;;25.00;38.60;;;;;;5017714;28;20019;-80
2022/07/09 14:05:44;;;;;;;;;;;25.00;38.60;;;;;;5018453;28;19926;-80
2022/07/09 14:08:11;;;;;;;;;;;25.00;38.50;;;;;;5017868;28;19929;-80
2022/07/09 14:10:38;;;;;;;;;;;25.00;38.50;;;;;;5021596;28;19926;-80
2022/07/09 14:13:05;;;;;;;;;;;25.00;38.50;;;;;;5019756;28;19977;-79
2022/07/09 14:15:33;;;;;;;;;;;25.00;38.50;;;;;;5017683;28;19925;-80
2022/07/09 14:18:00;;;;;;;;;;;25.00;38.40;;;;;;5019298;28;19948;-80
2022/07/09 14:20:28;;;;;;;;;;;25.00;38.40;;;;;;5019576;28;19973;-80
2022/07/09 14:22:55;;;;;;;;;;;25.00;38.50;;;;;;5018682;28;19929;-80
2022/07/09 14:25:24;;;;;;;;;;;25.00;38.40;;;;;;5018953;28;20005;-80
2022/07/09 14:27:51;;;;;;;;;;;25.00;38.40;;;;;;5019475;28;19930;-80
2022/07/09 14:30:18;;;;;;;;;;;25.10;38.50;;;;;;5019090;28;20008;-80
2022/07/09 14:32:44;;;;;;;;;;;25.10;38.50;;;;;;5018890;28;19925;-80
2022/07/09 14:35:12;;;;;;;;;;;25.10;38.50;;;;;;5020063;28;19925;-80
2022/07/09 14:37:40;;;;;;;;;;;25.10;38.50;;;;;;5014899;28;20025;-84
2022/07/09 14:40:08;;;;;;;;;;;25.10;38.50;;;;;;5016841;28;19926;-82
2022/07/09 14:42:35;;;;;;;;;;;25.10;38.50;;;;;;5015960;28;19936;-84
2022/07/09 14:45:02;;;;;;;;;;;25.10;38.50;;;;;;5017499;28;20435;-83
2022/07/09 14:47:28;;;;;;;;;;;25.10;38.50;;;;;;5019476;28;20013;-83
2022/07/09 14:49:55;;;;;;;;;;;25.10;38.60;;;;;;5021254;28;20016;-83
2022/07/09 14:52:22;;;;;;;;;;;25.10;38.60;;;;;;5021308;28;20012;-82
2022/07/09 14:54:50;;;;;;;;;;;25.10;38.60;;;;;;5021151;28;19969;-83
2022/07/09 14:57:16;;;;;;;;;;;25.10;38.70;;;;;;5020174;28;19984;-82
2022/07/09 14:59:43;;;;;;;;;;;25.10;38.70;;;;;;5027889;28;19980;-79
2022/07/09 15:02:10;;;;;;;;;;;25.20;38.80;;;;;;5028489;28;19981;-81
2022/07/09 15:04:37;;;;;;;;;;;25.10;38.70;;;;;;5028294;28;19933;-81
2022/07/09 15:07:04;;;;;;;;;;;25.20;38.80;;;;;;5023641;28;19981;-81
2022/07/09 15:09:30;;;;;;;;;;;25.10;38.80;;;;;;5022280;28;19988;-80
2022/07/09 15:11:58;;;;;;;;;;;25.20;38.90;;;;;;5022590;28;20353;-80
2022/07/09 15:14:25;;;;;;;;;;;25.20;38.90;;;;;;5021608;28;20028;-83
2022/07/09 15:16:52;;;;;;;;;;;25.20;38.90;;;;;;5021186;28;20016;-80
2022/07/09 15:19:19;;;;;;;;;;;25.20;39.00;;;;;;5021899;28;19948;-80
2022/07/09 15:21:46;;;;;;;;;;;25.20;39.00;;;;;;5021786;28;19936;-80
2022/07/09 15:24:12;;;;;;;;;;;25.20;39.00;;;;;;5021839;28;20389;-79
2022/07/09 15:26:39;;;;;;;;;;;25.20;39.10;;;;;;5021507;28;20337;-80
2022/07/09 15:29:07;;;;;;;;;;;25.20;39.10;;;;;;5021876;28;20016;-80
2022/07/09 15:31:34;;;;;;;;;;;25.20;39.20;;;;;;5022051;28;19971;-80
2022/07/09 15:34:04;;;;;;;;;;;25.20;39.20;;;;;;5021030;28;20413;-80
2022/07/09 15:36:31;;;;;;;;;;;25.20;39.20;;;;;;5021714;28;19996;-80
2022/07/09 15:38:57;;;;;;;;;;;25.20;39.20;;;;;;5021456;28;20405;-80
2022/07/09 15:41:24;;;;;;;;;;;25.20;39.20;;;;;;5021404;28;19976;-79
2022/07/09 15:43:51;;;;;;;;;;;25.20;39.30;;;;;;5021129;28;20372;-79
2022/07/09 15:46:19;;;;;;;;;;;25.20;39.30;;;;;;5020994;28;19932;-81
2022/07/09 15:48:45;;;;;;;;;;;25.20;39.30;;;;;;5020735;28;20512;-81
2022/07/09 15:51:12;;;;;;;;;;;25.10;39.30;;;;;;5020866;28;19971;-80
2022/07/09 15:53:39;;;;;;;;;;;25.20;39.40;;;;;;5021177;28;20361;-79
2022/07/09 15:56:05;;;;;;;;;;;25.10;39.30;;;;;;5020216;28;20005;-81
2022/07/09 15:58:32;;;;;;;;;;;25.20;39.40;;;;;;5020723;28;19931;-80
2022/07/09 16:00:59;;;;;;;;;;;25.10;39.30;;;;;;5020952;28;20416;-80
2022/07/09 16:03:30;;;;;;;;;;;25.10;39.40;;;;;;5021580;28;20020;-80
2022/07/09 16:05:56;;;;;;;;;;;25.10;39.40;;;;;;5021212;28;19930;-80
2022/07/09 16:08:24;;;;;;;;;;;25.10;39.40;;;;;;5020789;28;20012;-81
2022/07/09 16:10:51;;;;;;;;;;;25.10;39.50;;;;;;5021849;28;19976;-79
2022/07/09 16:13:19;;;;;;;;;;;25.10;39.50;;;;;;5020571;28;19976;-81
2022/07/09 16:15:46;;;;;;;;;;;25.10;39.50;;;;;;5021399;28;19980;-81
2022/07/09 16:18:13;;;;;;;;;;;25.10;39.50;;;;;;5023681;28;20012;-82
2022/07/09 16:20:42;;;;;;;;;;;25.10;39.60;;;;;;5022953;28;19976;-81
2022/07/09 16:23:09;;;;;;;;;;;25.10;39.60;;;;;;5020850;28;19925;-82
2022/07/09 16:25:36;;;;;;;;;;;25.10;39.60;;;;;;5019003;28;19930;-79
2022/07/09 16:28:02;;;;;;;;;;;25.10;39.60;;;;;;5018437;28;19925;-80
2022/07/09 16:30:29;;;;;;;;;;;25.10;39.70;;;;;;5017819;28;20008;-80
2022/07/09 16:32:56;;;;;;;;;;;25.10;39.70;;;;;;5017353;28;20348;-79
2022/07/09 16:35:23;;;;;;;;;;;25.10;39.80;;;;;;5016759;28;19932;-79
2022/07/09 16:37:51;;;;;;;;;;;25.10;39.80;;;;;;5017102;28;19926;-77
2022/07/09 16:40:18;;;;;;;;;;;25.10;39.90;;;;;;5016943;28;19974;-79
2022/07/09 16:42:44;;;;;;;;;;;25.20;40.00;;;;;;5017421;28;19968;-79
2022/07/09 16:45:11;;;;;;;;;;;25.10;40.00;;;;;;5018526;28;19980;-81
2022/07/09 16:47:38;;;;;;;;;;;25.20;40.10;;;;;;5019422;28;19932;-81
2022/07/09 16:50:05;;;;;;;;;;;25.10;40.10;;;;;;5018317;28;19949;-81
2022/07/09 16:52:31;;;;;;;;;;;25.10;40.10;;;;;;5020360;28;20029;-80
2022/07/09 16:54:59;;;;;;;;;;;25.10;40.10;;;;;;5020687;28;20016;-81
2022/07/09 16:57:27;;;;;;;;;;;25.10;40.20;;;;;;5020635;28;19967;-83
2022/07/09 16:59:55;;;;;;;;;;;25.20;40.30;;;;;;5022500;28;19932;-82
2022/07/09 17:02:22;;;;;;;;;;;25.10;40.30;;;;;;5021079;28;19934;-82
2022/07/09 17:04:49;;;;;;;;;;;25.10;40.30;;;;;;5021978;28;19972;-81
2022/07/09 17:07:17;;;;;;;;;;;25.10;40.30;;;;;;5020927;28;20369;-80
2022/07/09 17:09:44;;;;;;;;;;;25.10;40.40;;;;;;5022541;28;19925;-79
2022/07/09 17:12:12;;;;;;;;;;;25.10;40.40;;;;;;5020685;28;19932;-80
2022/07/09 17:14:39;;;;;;;;;;;25.10;40.40;;;;;;5020801;28;19925;-81
2022/07/09 17:17:08;;;;;;;;;;;25.10;40.50;;;;;;5021558;28;19925;-81
2022/07/09 17:19:35;;;;;;;;;;;25.10;40.50;;;;;;5021807;28;19925;-81
2022/07/09 17:22:02;;;;;;;;;;;25.10;40.50;;;;;;5018760;28;19926;-80
2022/07/09 17:24:31;;;;;;;;;;;25.10;40.60;;;;;;5018887;28;19969;-81
2022/07/09 17:26:58;;;;;;;;;;;25.10;40.60;;;;;;5018857;28;19929;-80
2022/07/09 17:29:27;;;;;;;;;;;25.10;40.70;;;;;;5018364;28;19926;-80
2022/07/09 17:31:57;;;;;;;;;;;25.10;40.70;;;;;;5017681;28;20040;-80
2022/07/09 17:34:24;;;;;;;;;;;25.10;40.70;;;;;;5017399;28;19993;-80
2022/07/09 17:36:51;;;;;;;;;;;25.10;40.70;;;;;;5017545;28;19925;-80
2022/07/09 17:39:18;;;;;;;;;;;25.10;40.80;;;;;;5017373;28;19980;-80
2022/07/09 17:41:45;;;;;;;;;;;25.10;40.90;;;;;;5016874;28;19926;-79
2022/07/09 17:44:12;;;;;;;;;;;25.10;40.90;;;;;;5017885;28;19964;-81
2022/07/09 17:46:41;;;;;;;;;;;25.10;40.90;;;;;;5016955;28;19926;-81
2022/07/09 17:49:08;;;;;;;;;;;25.10;41.00;;;;;;5016341;28;19925;-81
2022/07/09 17:51:35;;;;;;;;;;;25.10;41.00;;;;;;5016591;28;19925;-81
2022/07/09 17:54:02;;;;;;;;;;;25.10;41.00;;;;;;5016909;28;20399;-80
2022/07/09 17:56:30;;;;;;;;;;;25.10;41.60;;;;;;5017104;28;19930;-80
2022/07/09 17:58:57;;;;;;;;;;;25.10;41.10;;;;;;5017956;28;19997;-80
2022/07/09 18:01:24;;;;;;;;;;;25.10;41.10;;;;;;5017335;28;19930;-80
2022/07/09 18:03:54;;;;;;;;;;;25.10;41.20;;;;;;5017210;28;19930;-80
2022/07/09 18:06:22;;;;;;;;;;;25.10;41.20;;;;;;5016368;28;20382;-80
2022/07/09 18:08:49;;;;;;;;;;;25.10;41.30;;;;;;5016807;28;19926;-80
2022/07/09 18:11:16;;;;;;;;;;;25.10;41.30;;;;;;5016855;28;19976;-80
2022/07/09 18:13:44;;;;;;;;;;;25.10;41.30;;;;;;5017538;28;19925;-80
2022/07/09 18:16:11;;;;;;;;;;;25.10;41.30;;;;;;5018047;28;19925;-80
2022/07/09 18:18:40;;;;;;;;;;;25.10;41.40;;;;;;5016603;28;19925;-80
2022/07/09 18:21:09;;;;;;;;;;;25.10;41.40;;;;;;5019999;28;19930;-80
2022/07/09 18:23:40;;;;;;;;;;;25.10;41.40;;;;;;5019662;28;20054;-80
2022/07/09 18:26:07;;;;;;;;;;;25.10;41.30;;;;;;5019086;28;19968;-80
2022/07/09 18:28:34;;;;;;;;;;;25.10;41.30;;;;;;5020313;28;19925;-80
2022/07/09 18:31:01;;;;;;;;;;;25.00;41.30;;;;;;5019210;28;20357;-80
2022/07/09 18:33:28;;;;;;;;;;;25.10;41.30;;;;;;5021257;28;20274;-80
2022/07/09 18:35:55;;;;;;;;;;;25.10;41.30;;;;;;5020610;28;20373;-80
2022/07/09 18:38:24;;;;;;;;;;;25.10;41.30;;;;;;5021757;28;19933;-80
2022/07/09 18:40:52;;;;;;;;;;;25.10;41.40;;;;;;5020438;28;19929;-80
2022/07/09 18:43:19;;;;;;;;;;;25.10;41.30;;;;;;5021112;28;19972;-80
2022/07/09 18:45:46;;;;;;;;;;;25.10;41.30;;;;;;5020842;28;19933;-80
2022/07/09 18:48:13;;;;;;;;;;;25.10;41.30;;;;;;5020985;28;19925;-80
2022/07/09 18:50:42;;;;;;;;;;;25.00;41.30;;;;;;5020022;28;19983;-80
2022/07/09 18:53:09;;;;;;;;;;;25.10;41.30;;;;;;5019530;28;19930;-80
2022/07/09 18:55:38;;;;;;;;;;;25.10;41.40;;;;;;5020256;28;19977;-80
2022/07/09 18:58:05;;;;;;;;;;;25.10;41.40;;;;;;5019769;28;19925;-80
2022/07/09 19:00:33;;;;;;;;;;;25.00;41.30;;;;;;5019942;28;20038;-80
2022/07/09 19:03:00;;;;;;;;;;;25.00;41.40;;;;;;5021867;28;20286;-80
2022/07/09 19:05:27;;;;;;;;;;;25.00;41.40;;;;;;5021367;28;20016;-80
2022/07/09 19:07:53;;;;;;;;;;;25.00;41.50;;;;;;5021790;28;20424;-81
2022/07/09 19:10:20;;;;;;;;;;;25.00;41.60;;;;;;5021442;28;19933;-81
2022/07/09 19:12:48;;;;;;;;;;;25.00;41.60;;;;;;5020146;28;19932;-80
2022/07/09 19:15:15;;;;;;;;;;;25.00;41.70;;;;;;5021313;28;19969;-80
2022/07/09 19:17:42;;;;;;;;;;;25.00;41.70;;;;;;5021185;28;19929;-80
2022/07/09 19:20:13;;;;;;;;;;;25.00;41.80;;;;;;5018979;28;20365;-80
2022/07/09 19:22:40;;;;;;;;;;;25.00;41.80;;;;;;5019118;28;19933;-79
2022/07/09 19:25:07;;;;;;;;;;;25.00;41.90;;;;;;5020868;28;19973;-81
2022/07/09 19:27:34;;;;;;;;;;;25.00;41.90;;;;;;5020464;28;19948;-81
2022/07/09 19:30:02;;;;;;;;;;;25.00;42.00;;;;;;5018249;28;20020;-79
2022/07/09 19:35:12;;;;;;;;;;;25.00;42.10;;;;;;5017531;28;19971;-80
2022/07/09 19:37:39;;;;;;;;;;;25.00;42.30;;;;;;5019231;28;20024;-81
2022/07/09 19:40:06;;;;;;;;;;;25.10;42.50;;;;;;5018681;28;19932;-80
2022/07/09 19:42:33;;;;;;;;;;;25.10;42.50;;;;;;5019194;28;20015;-80
2022/07/09 19:45:00;;;;;;;;;;;25.10;42.60;;;;;;5019328;28;19961;-80
2022/07/09 19:47:28;;;;;;;;;;;25.10;42.70;;;;;;5019429;28;19976;-81
2022/07/09 19:49:54;;;;;;;;;;;25.10;42.80;;;;;;5019825;28;20020;-80
2022/07/09 19:52:22;;;;;;;;;;;25.10;42.90;;;;;;5018783;28;20355;-80
2022/07/09 19:54:49;;;;;;;;;;;25.10;43.00;;;;;;5019272;28;19930;-80
2022/07/09 19:57:20;;;;;;;;;;;25.10;43.10;;;;;;5019934;28;19964;-81
2022/07/09 19:59:46;;;;;;;;;;;25.10;43.10;;;;;;5020165;28;19950;-80
2022/07/09 20:02:13;;;;;;;;;;;25.10;43.20;;;;;;5018703;28;19972;-81